sensor_id;sensor_type;location;lat;lon;timestamp;temperature;humidity
60723;DHT22;46574;52.818;6.516;2023-04-06T00:00:23;3.70;99.90
60723;DHT22;46574;52.818;6.516;2023-04-06T00:02:49;3.70;99.90
60723;DHT22;46574;52.818;6.516;2023-04-06T00:05:15;3.70;99.90
60723;DHT22;46574;52.818;6.516;2023-04-06T00:07:41;3.60;99.90
60723;DHT22;46574;52.818;6.516;2023-04-06T00:10:07;3.60;99.90
60723;DHT22;46574;52.818;6.516;2023-04-06T00:12:33;3.60;99.90
60723;DHT22;46574;52.818;6.516;2023-04-06T00:14:58;3.60;99.90
60723;DHT22;46574;52.818;6.516;2023-04-06T00:17:24;3.60;99.90
60723;DHT22;46574;52.818;6.516;2023-04-06T00:19:50;3.60;99.90
60723;DHT22;46574;52.818;6.516;2023-04-06T00:22:15;3.50;99.90
60723;DHT22;46574;52.818;6.516;2023-04-06T00:24:41;3.50;99.90
60723;DHT22;46574;52.818;6.516;2023-04-06T00:27:06;3.50;99.90
60723;DHT22;46574;52.818;6.516;2023-04-06T00:29:32;3.40;99.90
60723;DHT22;46574;52.818;6.516;2023-04-06T00:31:58;3.40;99.90
60723;DHT22;46574;52.818;6.516;2023-04-06T00:34:23;3.40;99.90
60723;DHT22;46574;52.818;6.516;2023-04-06T00:36:49;3.30;99.90
60723;DHT22;46574;52.818;6.516;2023-04-06T00:39:14;3.30;99.90
60723;DHT22;46574;52.818;6.516;2023-04-06T00:41:45;3.30;99.90
60723;DHT22;46574;52.818;6.516;2023-04-06T00:44:11;3.20;99.90
60723;DHT22;46574;52.818;6.516;2023-04-06T00:46:37;3.20;99.90
60723;DHT22;46574;52.818;6.516;2023-04-06T00:49:03;3.10;99.90
60723;DHT22;46574;52.818;6.516;2023-04-06T00:51:28;3.10;99.90
60723;DHT22;46574;52.818;6.516;2023-04-06T00:53:54;3.10;99.90
60723;DHT22;46574;52.818;6.516;2023-04-06T00:56:20;3.10;99.90
60723;DHT22;46574;52.818;6.516;2023-04-06T00:58:46;3.10;99.90
60723;DHT22;46574;52.818;6.516;2023-04-06T01:01:12;3.00;99.90
60723;DHT22;46574;52.818;6.516;2023-04-06T01:03:38;3.00;99.90
60723;DHT22;46574;52.818;6.516;2023-04-06T01:06:03;3.00;99.90
60723;DHT22;46574;52.818;6.516;2023-04-06T01:08:29;3.00;99.90
60723;DHT22;46574;52.818;6.516;2023-04-06T01:10:55;3.00;99.90
60723;DHT22;46574;52.818;6.516;2023-04-06T01:13:21;2.90;99.90
60723;DHT22;46574;52.818;6.516;2023-04-06T01:15:47;2.90;99.90
60723;DHT22;46574;52.818;6.516;2023-04-06T01:18:12;2.90;99.90
60723;DHT22;46574;52.818;6.516;2023-04-06T01:20:38;2.90;99.90
60723;DHT22;46574;52.818;6.516;2023-04-06T01:23:04;2.90;99.90
60723;DHT22;46574;52.818;6.516;2023-04-06T01:25:29;2.80;99.90
60723;DHT22;46574;52.818;6.516;2023-04-06T01:27:55;2.80;99.90
60723;DHT22;46574;52.818;6.516;2023-04-06T01:30:21;2.80;99.90
60723;DHT22;46574;52.818;6.516;2023-04-06T01:32:46;2.80;99.90
60723;DHT22;46574;52.818;6.516;2023-04-06T01:35:12;2.80;99.90
60723;DHT22;46574;52.818;6.516;2023-04-06T01:37:37;2.80;99.90
60723;DHT22;46574;52.818;6.516;2023-04-06T01:40:03;2.70;99.90
60723;DHT22;46574;52.818;6.516;2023-04-06T01:42:30;2.70;99.90
60723;DHT22;46574;52.818;6.516;2023-04-06T01:44:55;2.70;99.90
60723;DHT22;46574;52.818;6.516;2023-04-06T01:47:21;2.70;99.90
60723;DHT22;46574;52.818;6.516;2023-04-06T01:49:46;2.70;99.90
60723;DHT22;46574;52.818;6.516;2023-04-06T01:52:12;2.70;99.90
60723;DHT22;46574;52.818;6.516;2023-04-06T01:54:38;2.70;99.90
60723;DHT22;46574;52.818;6.516;2023-04-06T01:57:03;2.60;99.90
60723;DHT22;46574;52.818;6.516;2023-04-06T01:59:29;2.70;99.90
60723;DHT22;46574;52.818;6.516;2023-04-06T02:01:55;2.60;99.90
60723;DHT22;46574;52.818;6.516;2023-04-06T02:04:20;2.60;99.90
60723;DHT22;46574;52.818;6.516;2023-04-06T02:06:46;2.60;99.90
60723;DHT22;46574;52.818;6.516;2023-04-06T02:09:12;2.60;99.90
60723;DHT22;46574;52.818;6.516;2023-04-06T02:11:37;2.50;99.90
60723;DHT22;46574;52.818;6.516;2023-04-06T02:14:03;2.50;99.90
60723;DHT22;46574;52.818;6.516;2023-04-06T02:16:29;2.50;99.90
60723;DHT22;46574;52.818;6.516;2023-04-06T02:18:54;2.50;99.90
60723;DHT22;46574;52.818;6.516;2023-04-06T02:21:20;2.50;99.90
60723;DHT22;46574;52.818;6.516;2023-04-06T02:23:46;2.50;99.90
60723;DHT22;46574;52.818;6.516;2023-04-06T02:26:13;2.40;99.90
60723;DHT22;46574;52.818;6.516;2023-04-06T02:28:39;2.50;99.90
60723;DHT22;46574;52.818;6.516;2023-04-06T02:31:05;2.50;99.90
60723;DHT22;46574;52.818;6.516;2023-04-06T02:33:30;2.50;99.90
60723;DHT22;46574;52.818;6.516;2023-04-06T02:35:56;2.50;99.90
60723;DHT22;46574;52.818;6.516;2023-04-06T02:38:21;2.40;99.90
60723;DHT22;46574;52.818;6.516;2023-04-06T02:40:47;2.40;99.90
60723;DHT22;46574;52.818;6.516;2023-04-06T02:43:13;2.40;99.90
60723;DHT22;46574;52.818;6.516;2023-04-06T02:45:38;2.30;99.90
60723;DHT22;46574;52.818;6.516;2023-04-06T02:48:04;2.30;99.90
60723;DHT22;46574;52.818;6.516;2023-04-06T02:50:30;2.30;99.90
60723;DHT22;46574;52.818;6.516;2023-04-06T02:52:56;2.20;99.90
60723;DHT22;46574;52.818;6.516;2023-04-06T02:55:21;2.20;99.90
60723;DHT22;46574;52.818;6.516;2023-04-06T02:57:47;2.10;99.90
60723;DHT22;46574;52.818;6.516;2023-04-06T03:00:12;2.10;99.90
60723;DHT22;46574;52.818;6.516;2023-04-06T03:02:38;2.10;99.90
60723;DHT22;46574;52.818;6.516;2023-04-06T03:05:04;2.10;99.90
60723;DHT22;46574;52.818;6.516;2023-04-06T03:07:30;2.10;99.90
60723;DHT22;46574;52.818;6.516;2023-04-06T03:09:55;2.00;99.90
60723;DHT22;46574;52.818;6.516;2023-04-06T03:12:21;2.00;99.90
60723;DHT22;46574;52.818;6.516;2023-04-06T03:14:47;2.00;99.90
60723;DHT22;46574;52.818;6.516;2023-04-06T03:17:12;1.90;99.90
60723;DHT22;46574;52.818;6.516;2023-04-06T03:19:38;1.90;99.90
60723;DHT22;46574;52.818;6.516;2023-04-06T03:22:03;1.90;99.90
60723;DHT22;46574;52.818;6.516;2023-04-06T03:24:29;1.90;99.90
60723;DHT22;46574;52.818;6.516;2023-04-06T03:26:54;1.90;99.90
60723;DHT22;46574;52.818;6.516;2023-04-06T03:29:20;1.90;99.90
60723;DHT22;46574;52.818;6.516;2023-04-06T03:31:46;1.80;99.90
60723;DHT22;46574;52.818;6.516;2023-04-06T03:34:11;1.80;99.90
60723;DHT22;46574;52.818;6.516;2023-04-06T03:36:37;1.80;99.90
60723;DHT22;46574;52.818;6.516;2023-04-06T03:39:03;1.80;99.90
60723;DHT22;46574;52.818;6.516;2023-04-06T03:41:29;1.80;99.90
60723;DHT22;46574;52.818;6.516;2023-04-06T03:43:54;1.80;99.90
60723;DHT22;46574;52.818;6.516;2023-04-06T03:46:20;1.80;99.90
60723;DHT22;46574;52.818;6.516;2023-04-06T03:48:48;1.80;99.90
60723;DHT22;46574;52.818;6.516;2023-04-06T03:51:14;1.80;99.90
60723;DHT22;46574;52.818;6.516;2023-04-06T03:53:39;1.80;99.90
60723;DHT22;46574;52.818;6.516;2023-04-06T03:56:05;1.70;99.90
60723;DHT22;46574;52.818;6.516;2023-04-06T03:58:31;1.80;99.90
60723;DHT22;46574;52.818;6.516;2023-04-06T04:00:57;1.70;99.90
60723;DHT22;46574;52.818;6.516;2023-04-06T04:03:22;1.70;99.90
60723;DHT22;46574;52.818;6.516;2023-04-06T04:05:53;1.70;99.90
60723;DHT22;46574;52.818;6.516;2023-04-06T04:08:20;1.70;99.90
60723;DHT22;46574;52.818;6.516;2023-04-06T04:10:46;1.70;99.90
60723;DHT22;46574;52.818;6.516;2023-04-06T04:13:11;1.70;99.90
60723;DHT22;46574;52.818;6.516;2023-04-06T04:15:37;1.60;99.90
60723;DHT22;46574;52.818;6.516;2023-04-06T04:18:02;1.60;99.90
60723;DHT22;46574;52.818;6.516;2023-04-06T04:20:28;1.60;99.90
60723;DHT22;46574;52.818;6.516;2023-04-06T04:22:54;1.60;99.90
60723;DHT22;46574;52.818;6.516;2023-04-06T04:25:19;1.60;99.90
60723;DHT22;46574;52.818;6.516;2023-04-06T04:27:45;1.60;99.90
60723;DHT22;46574;52.818;6.516;2023-04-06T04:30:11;1.50;99.90
60723;DHT22;46574;52.818;6.516;2023-04-06T04:32:36;1.60;99.90
60723;DHT22;46574;52.818;6.516;2023-04-06T04:35:02;1.50;99.90
60723;DHT22;46574;52.818;6.516;2023-04-06T04:37:28;1.50;99.90
60723;DHT22;46574;52.818;6.516;2023-04-06T04:39:54;1.50;99.90
60723;DHT22;46574;52.818;6.516;2023-04-06T04:42:19;1.50;99.90
60723;DHT22;46574;52.818;6.516;2023-04-06T04:44:45;1.40;99.90
60723;DHT22;46574;52.818;6.516;2023-04-06T04:47:11;1.40;99.90
60723;DHT22;46574;52.818;6.516;2023-04-06T04:49:37;1.40;99.90
60723;DHT22;46574;52.818;6.516;2023-04-06T04:52:02;1.40;99.90
60723;DHT22;46574;52.818;6.516;2023-04-06T04:54:28;1.40;99.90
60723;DHT22;46574;52.818;6.516;2023-04-06T04:56:54;1.40;99.90
60723;DHT22;46574;52.818;6.516;2023-04-06T04:59:19;1.30;99.90
60723;DHT22;46574;52.818;6.516;2023-04-06T05:01:45;1.30;99.90
60723;DHT22;46574;52.818;6.516;2023-04-06T05:04:11;1.30;99.90
60723;DHT22;46574;52.818;6.516;2023-04-06T05:06:36;1.30;99.90
60723;DHT22;46574;52.818;6.516;2023-04-06T05:09:02;1.30;99.90
60723;DHT22;46574;52.818;6.516;2023-04-06T05:11:28;1.30;99.90
60723;DHT22;46574;52.818;6.516;2023-04-06T05:13:54;1.30;99.90
60723;DHT22;46574;52.818;6.516;2023-04-06T05:16:19;1.30;99.90
60723;DHT22;46574;52.818;6.516;2023-04-06T05:18:47;1.30;99.90
60723;DHT22;46574;52.818;6.516;2023-04-06T05:21:13;1.40;99.90
60723;DHT22;46574;52.818;6.516;2023-04-06T05:23:39;1.40;99.90
60723;DHT22;46574;52.818;6.516;2023-04-06T05:26:04;1.40;99.90
60723;DHT22;46574;52.818;6.516;2023-04-06T05:28:30;1.50;99.90
60723;DHT22;46574;52.818;6.516;2023-04-06T05:30:56;1.50;99.90
60723;DHT22;46574;52.818;6.516;2023-04-06T05:33:23;1.50;99.90
60723;DHT22;46574;52.818;6.516;2023-04-06T05:35:48;1.60;99.90
60723;DHT22;46574;52.818;6.516;2023-04-06T05:38:14;1.60;99.90
60723;DHT22;46574;52.818;6.516;2023-04-06T05:40:40;1.60;99.90
60723;DHT22;46574;52.818;6.516;2023-04-06T05:43:07;1.70;99.90
60723;DHT22;46574;52.818;6.516;2023-04-06T05:45:33;1.70;99.90
60723;DHT22;46574;52.818;6.516;2023-04-06T05:47:58;1.70;99.90
60723;DHT22;46574;52.818;6.516;2023-04-06T05:50:24;1.80;99.90
60723;DHT22;46574;52.818;6.516;2023-04-06T05:52:50;1.80;99.90
60723;DHT22;46574;52.818;6.516;2023-04-06T05:55:16;1.90;99.90
60723;DHT22;46574;52.818;6.516;2023-04-06T05:57:41;1.90;99.90
60723;DHT22;46574;52.818;6.516;2023-04-06T06:00:07;2.00;99.90
60723;DHT22;46574;52.818;6.516;2023-04-06T06:02:36;2.00;99.90
60723;DHT22;46574;52.818;6.516;2023-04-06T06:05:02;2.10;99.90
60723;DHT22;46574;52.818;6.516;2023-04-06T06:07:27;2.10;99.90
60723;DHT22;46574;52.818;6.516;2023-04-06T06:09:56;2.20;99.90
60723;DHT22;46574;52.818;6.516;2023-04-06T06:12:22;2.30;99.90
60723;DHT22;46574;52.818;6.516;2023-04-06T06:14:47;2.30;99.90
60723;DHT22;46574;52.818;6.516;2023-04-06T06:17:13;2.40;99.90
60723;DHT22;46574;52.818;6.516;2023-04-06T06:19:40;2.40;99.90
60723;DHT22;46574;52.818;6.516;2023-04-06T06:22:06;2.50;99.90
60723;DHT22;46574;52.818;6.516;2023-04-06T06:24:31;2.70;99.90
60723;DHT22;46574;52.818;6.516;2023-04-06T06:26:57;2.80;99.90
60723;DHT22;46574;52.818;6.516;2023-04-06T06:29:23;2.90;99.90
60723;DHT22;46574;52.818;6.516;2023-04-06T06:31:49;3.00;99.90
60723;DHT22;46574;52.818;6.516;2023-04-06T06:34:15;3.10;99.90
60723;DHT22;46574;52.818;6.516;2023-04-06T06:36:40;3.10;99.90
60723;DHT22;46574;52.818;6.516;2023-04-06T06:39:06;3.20;99.90
60723;DHT22;46574;52.818;6.516;2023-04-06T06:41:32;3.30;99.90
60723;DHT22;46574;52.818;6.516;2023-04-06T06:43:57;3.40;99.90
60723;DHT22;46574;52.818;6.516;2023-04-06T06:46:23;3.40;99.90
60723;DHT22;46574;52.818;6.516;2023-04-06T06:48:49;3.50;99.90
60723;DHT22;46574;52.818;6.516;2023-04-06T06:51:14;3.60;99.90
60723;DHT22;46574;52.818;6.516;2023-04-06T06:53:40;3.70;99.90
60723;DHT22;46574;52.818;6.516;2023-04-06T06:56:06;3.70;99.90
60723;DHT22;46574;52.818;6.516;2023-04-06T06:58:31;3.90;99.90
60723;DHT22;46574;52.818;6.516;2023-04-06T07:00:58;4.00;99.90
60723;DHT22;46574;52.818;6.516;2023-04-06T07:03:24;4.10;99.90
60723;DHT22;46574;52.818;6.516;2023-04-06T07:05:50;4.20;99.90
60723;DHT22;46574;52.818;6.516;2023-04-06T07:08:22;4.30;99.90
60723;DHT22;46574;52.818;6.516;2023-04-06T07:10:50;4.50;99.90
60723;DHT22;46574;52.818;6.516;2023-04-06T07:13:16;4.60;99.90
60723;DHT22;46574;52.818;6.516;2023-04-06T07:15:47;4.70;99.90
60723;DHT22;46574;52.818;6.516;2023-04-06T07:18:12;4.80;99.90
60723;DHT22;46574;52.818;6.516;2023-04-06T07:20:38;4.90;99.90
60723;DHT22;46574;52.818;6.516;2023-04-06T07:23:04;5.00;99.90
60723;DHT22;46574;52.818;6.516;2023-04-06T07:25:30;5.10;99.90
60723;DHT22;46574;52.818;6.516;2023-04-06T07:27:56;5.20;99.90
60723;DHT22;46574;52.818;6.516;2023-04-06T07:30:21;5.30;99.90
60723;DHT22;46574;52.818;6.516;2023-04-06T07:32:48;5.50;99.90
60723;DHT22;46574;52.818;6.516;2023-04-06T07:35:14;5.60;99.90
60723;DHT22;46574;52.818;6.516;2023-04-06T07:37:40;5.70;99.90
60723;DHT22;46574;52.818;6.516;2023-04-06T07:40:06;5.80;99.90
60723;DHT22;46574;52.818;6.516;2023-04-06T07:42:32;5.90;99.90
60723;DHT22;46574;52.818;6.516;2023-04-06T07:44:58;6.00;99.90
60723;DHT22;46574;52.818;6.516;2023-04-06T07:47:24;6.10;99.90
60723;DHT22;46574;52.818;6.516;2023-04-06T07:49:49;6.30;99.90
60723;DHT22;46574;52.818;6.516;2023-04-06T07:52:15;6.40;99.90
60723;DHT22;46574;52.818;6.516;2023-04-06T07:54:41;6.40;99.90
60723;DHT22;46574;52.818;6.516;2023-04-06T07:57:07;6.50;99.90
60723;DHT22;46574;52.818;6.516;2023-04-06T07:59:32;6.60;99.90
60723;DHT22;46574;52.818;6.516;2023-04-06T08:01:58;6.80;99.90
60723;DHT22;46574;52.818;6.516;2023-04-06T08:04:24;6.90;99.90
60723;DHT22;46574;52.818;6.516;2023-04-06T08:06:49;7.00;99.90
60723;DHT22;46574;52.818;6.516;2023-04-06T08:09:15;7.20;99.90
60723;DHT22;46574;52.818;6.516;2023-04-06T08:11:41;7.30;99.90
60723;DHT22;46574;52.818;6.516;2023-04-06T08:14:06;7.50;99.90
60723;DHT22;46574;52.818;6.516;2023-04-06T08:16:32;7.60;99.90
60723;DHT22;46574;52.818;6.516;2023-04-06T08:18:58;7.80;99.90
60723;DHT22;46574;52.818;6.516;2023-04-06T08:21:23;8.00;99.90
60723;DHT22;46574;52.818;6.516;2023-04-06T08:23:49;8.20;99.90
60723;DHT22;46574;52.818;6.516;2023-04-06T08:26:15;8.30;99.90
60723;DHT22;46574;52.818;6.516;2023-04-06T08:28:41;8.50;99.90
60723;DHT22;46574;52.818;6.516;2023-04-06T08:31:06;8.70;99.90
60723;DHT22;46574;52.818;6.516;2023-04-06T08:33:35;8.70;99.90
60723;DHT22;46574;52.818;6.516;2023-04-06T08:36:12;8.80;99.90
60723;DHT22;46574;52.818;6.516;2023-04-06T08:38:39;8.90;99.90
60723;DHT22;46574;52.818;6.516;2023-04-06T08:41:12;9.00;99.90
60723;DHT22;46574;52.818;6.516;2023-04-06T08:43:50;9.20;99.90
60723;DHT22;46574;52.818;6.516;2023-04-06T08:46:18;9.30;99.90
60723;DHT22;46574;52.818;6.516;2023-04-06T08:48:44;9.40;99.90
60723;DHT22;46574;52.818;6.516;2023-04-06T08:51:11;9.60;99.90
60723;DHT22;46574;52.818;6.516;2023-04-06T08:53:37;9.60;99.90
60723;DHT22;46574;52.818;6.516;2023-04-06T08:56:04;9.70;99.90
60723;DHT22;46574;52.818;6.516;2023-04-06T08:58:37;9.70;99.90
60723;DHT22;46574;52.818;6.516;2023-04-06T09:01:07;9.80;99.90
60723;DHT22;46574;52.818;6.516;2023-04-06T09:03:38;9.80;99.90
60723;DHT22;46574;52.818;6.516;2023-04-06T09:06:06;9.90;99.90
60723;DHT22;46574;52.818;6.516;2023-04-06T09:08:39;10.00;99.90
60723;DHT22;46574;52.818;6.516;2023-04-06T09:11:06;10.00;99.90
60723;DHT22;46574;52.818;6.516;2023-04-06T09:13:31;10.00;99.90
60723;DHT22;46574;52.818;6.516;2023-04-06T09:16:02;10.00;99.90
60723;DHT22;46574;52.818;6.516;2023-04-06T09:18:33;10.20;99.90
60723;DHT22;46574;52.818;6.516;2023-04-06T09:21:04;10.20;99.90
60723;DHT22;46574;52.818;6.516;2023-04-06T09:23:30;10.20;99.90
60723;DHT22;46574;52.818;6.516;2023-04-06T09:26:08;10.20;99.90
60723;DHT22;46574;52.818;6.516;2023-04-06T09:28:44;10.30;99.90
60723;DHT22;46574;52.818;6.516;2023-04-06T09:31:12;10.30;99.90
60723;DHT22;46574;52.818;6.516;2023-04-06T09:33:44;10.50;99.90
60723;DHT22;46574;52.818;6.516;2023-04-06T09:36:11;10.60;99.90
60723;DHT22;46574;52.818;6.516;2023-04-06T09:38:52;10.70;99.90
60723;DHT22;46574;52.818;6.516;2023-04-06T09:41:25;10.80;99.80
60723;DHT22;46574;52.818;6.516;2023-04-06T09:44:01;10.80;97.20
60723;DHT22;46574;52.818;6.516;2023-04-06T09:46:27;10.70;94.90
60723;DHT22;46574;52.818;6.516;2023-04-06T09:48:57;10.70;97.10
60723;DHT22;46574;52.818;6.516;2023-04-06T09:51:23;10.70;92.80
60723;DHT22;46574;52.818;6.516;2023-04-06T09:53:52;10.90;94.90
60723;DHT22;46574;52.818;6.516;2023-04-06T09:56:24;11.00;94.00
60723;DHT22;46574;52.818;6.516;2023-04-06T09:58:53;11.20;83.10
60723;DHT22;46574;52.818;6.516;2023-04-06T10:01:20;11.30;92.00
60723;DHT22;46574;52.818;6.516;2023-04-06T10:04:13;11.50;91.20
60723;DHT22;46574;52.818;6.516;2023-04-06T10:06:46;11.60;89.90
60723;DHT22;46574;52.818;6.516;2023-04-06T10:09:17;11.70;86.90
60723;DHT22;46574;52.818;6.516;2023-04-06T10:11:44;11.90;90.00
60723;DHT22;46574;52.818;6.516;2023-04-06T10:14:11;12.20;89.40
60723;DHT22;46574;52.818;6.516;2023-04-06T10:16:37;12.30;86.50
60723;DHT22;46574;52.818;6.516;2023-04-06T10:19:12;12.30;87.00
60723;DHT22;46574;52.818;6.516;2023-04-06T10:21:39;12.40;86.40
60723;DHT22;46574;52.818;6.516;2023-04-06T10:24:09;12.50;87.00
60723;DHT22;46574;52.818;6.516;2023-04-06T10:26:36;12.40;83.90
60723;DHT22;46574;52.818;6.516;2023-04-06T10:29:03;12.50;76.30
60723;DHT22;46574;52.818;6.516;2023-04-06T10:31:29;12.60;83.60
60723;DHT22;46574;52.818;6.516;2023-04-06T10:33:56;12.70;84.10
60723;DHT22;46574;52.818;6.516;2023-04-06T10:36:27;12.70;83.60
60723;DHT22;46574;52.818;6.516;2023-04-06T10:39:01;12.80;84.90
60723;DHT22;46574;52.818;6.516;2023-04-06T10:44:02;12.60;76.70
60723;DHT22;46574;52.818;6.516;2023-04-06T10:46:30;12.60;81.40
60723;DHT22;46574;52.818;6.516;2023-04-06T10:48:56;12.70;83.10
60723;DHT22;46574;52.818;6.516;2023-04-06T10:51:27;12.70;81.70
60723;DHT22;46574;52.818;6.516;2023-04-06T10:53:54;12.80;81.70
60723;DHT22;46574;52.818;6.516;2023-04-06T10:56:22;12.80;81.00
60723;DHT22;46574;52.818;6.516;2023-04-06T10:58:49;12.60;76.80
60723;DHT22;46574;52.818;6.516;2023-04-06T11:01:17;12.60;77.50
60723;DHT22;46574;52.818;6.516;2023-04-06T11:03:44;12.50;70.10
60723;DHT22;46574;52.818;6.516;2023-04-06T11:06:10;12.50;74.50
60723;DHT22;46574;52.818;6.516;2023-04-06T11:08:36;12.60;75.70
60723;DHT22;46574;52.818;6.516;2023-04-06T11:11:14;12.60;76.20
60723;DHT22;46574;52.818;6.516;2023-04-06T11:13:51;12.50;68.00
60723;DHT22;46574;52.818;6.516;2023-04-06T11:18:55;12.50;71.60
60723;DHT22;46574;52.818;6.516;2023-04-06T11:21:36;12.60;73.70
60723;DHT22;46574;52.818;6.516;2023-04-06T11:24:22;12.60;72.90
60723;DHT22;46574;52.818;6.516;2023-04-06T11:26:56;12.70;75.00
60723;DHT22;46574;52.818;6.516;2023-04-06T11:29:23;12.70;74.10
60723;DHT22;46574;52.818;6.516;2023-04-06T11:31:51;12.80;74.40
60723;DHT22;46574;52.818;6.516;2023-04-06T11:34:19;12.90;75.70
60723;DHT22;46574;52.818;6.516;2023-04-06T11:36:47;13.00;72.30
60723;DHT22;46574;52.818;6.516;2023-04-06T11:39:13;12.90;68.70
60723;DHT22;46574;52.818;6.516;2023-04-06T11:41:47;12.90;69.70
60723;DHT22;46574;52.818;6.516;2023-04-06T11:44:13;12.90;67.50
60723;DHT22;46574;52.818;6.516;2023-04-06T11:46:39;12.70;60.60
60723;DHT22;46574;52.818;6.516;2023-04-06T11:49:05;12.80;66.60
60723;DHT22;46574;52.818;6.516;2023-04-06T11:51:35;13.00;68.30
60723;DHT22;46574;52.818;6.516;2023-04-06T11:54:01;13.20;69.50
60723;DHT22;46574;52.818;6.516;2023-04-06T11:56:28;13.40;68.10
60723;DHT22;46574;52.818;6.516;2023-04-06T11:58:56;13.40;68.70
60723;DHT22;46574;52.818;6.516;2023-04-06T12:01:22;13.50;65.70
60723;DHT22;46574;52.818;6.516;2023-04-06T12:03:48;13.50;66.60
60723;DHT22;46574;52.818;6.516;2023-04-06T12:06:14;13.50;68.60
60723;DHT22;46574;52.818;6.516;2023-04-06T12:08:40;13.50;65.50
60723;DHT22;46574;52.818;6.516;2023-04-06T12:11:09;13.30;60.40
60723;DHT22;46574;52.818;6.516;2023-04-06T12:13:35;13.20;59.90
60723;DHT22;46574;52.818;6.516;2023-04-06T12:16:01;13.30;64.30
60723;DHT22;46574;52.818;6.516;2023-04-06T12:18:26;13.50;65.50
60723;DHT22;46574;52.818;6.516;2023-04-06T12:20:52;13.60;65.20
60723;DHT22;46574;52.818;6.516;2023-04-06T12:23:19;13.80;64.20
60723;DHT22;46574;52.818;6.516;2023-04-06T12:25:45;13.70;64.90
60723;DHT22;46574;52.818;6.516;2023-04-06T12:28:11;13.60;63.50
60723;DHT22;46574;52.818;6.516;2023-04-06T12:30:37;13.50;64.20
60723;DHT22;46574;52.818;6.516;2023-04-06T12:33:03;13.70;62.80
60723;DHT22;46574;52.818;6.516;2023-04-06T12:35:29;13.60;61.00
60723;DHT22;46574;52.818;6.516;2023-04-06T12:37:58;13.70;62.70
60723;DHT22;46574;52.818;6.516;2023-04-06T12:40:24;13.80;63.50
60723;DHT22;46574;52.818;6.516;2023-04-06T12:42:49;13.90;64.60
60723;DHT22;46574;52.818;6.516;2023-04-06T12:45:15;14.10;65.20
60723;DHT22;46574;52.818;6.516;2023-04-06T12:47:41;14.00;64.50
60723;DHT22;46574;52.818;6.516;2023-04-06T12:50:07;13.80;64.10
60723;DHT22;46574;52.818;6.516;2023-04-06T12:52:32;13.50;61.80
60723;DHT22;46574;52.818;6.516;2023-04-06T12:55:03;13.60;64.20
60723;DHT22;46574;52.818;6.516;2023-04-06T12:57:30;13.60;66.00
60723;DHT22;46574;52.818;6.516;2023-04-06T12:59:57;13.70;65.40
60723;DHT22;46574;52.818;6.516;2023-04-06T13:02:22;13.70;64.70
60723;DHT22;46574;52.818;6.516;2023-04-06T13:04:51;13.60;65.70
60723;DHT22;46574;52.818;6.516;2023-04-06T13:07:17;13.60;66.10
60723;DHT22;46574;52.818;6.516;2023-04-06T13:09:43;13.50;66.60
60723;DHT22;46574;52.818;6.516;2023-04-06T13:12:08;13.50;65.50
60723;DHT22;46574;52.818;6.516;2023-04-06T13:14:34;13.30;67.10
60723;DHT22;46574;52.818;6.516;2023-04-06T13:17:00;13.30;68.10
60723;DHT22;46574;52.818;6.516;2023-04-06T13:19:25;13.20;67.70
60723;DHT22;46574;52.818;6.516;2023-04-06T13:21:51;13.10;67.30
60723;DHT22;46574;52.818;6.516;2023-04-06T13:24:17;13.10;68.50
60723;DHT22;46574;52.818;6.516;2023-04-06T13:26:44;13.10;67.10
60723;DHT22;46574;52.818;6.516;2023-04-06T13:29:10;13.20;69.70
60723;DHT22;46574;52.818;6.516;2023-04-06T13:31:36;13.20;69.80
60723;DHT22;46574;52.818;6.516;2023-04-06T13:34:02;13.20;71.00
60723;DHT22;46574;52.818;6.516;2023-04-06T13:36:27;13.20;72.70
60723;DHT22;46574;52.818;6.516;2023-04-06T13:38:53;13.00;74.10
60723;DHT22;46574;52.818;6.516;2023-04-06T13:41:21;13.00;73.80
60723;DHT22;46574;52.818;6.516;2023-04-06T13:43:47;12.90;74.30
60723;DHT22;46574;52.818;6.516;2023-04-06T13:46:13;12.80;75.40
60723;DHT22;46574;52.818;6.516;2023-04-06T13:48:38;12.70;76.00
60723;DHT22;46574;52.818;6.516;2023-04-06T13:51:14;12.70;76.30
60723;DHT22;46574;52.818;6.516;2023-04-06T13:53:40;12.70;75.00
60723;DHT22;46574;52.818;6.516;2023-04-06T13:56:07;12.70;75.50
60723;DHT22;46574;52.818;6.516;2023-04-06T13:58:33;12.70;75.40
60723;DHT22;46574;52.818;6.516;2023-04-06T14:01:06;12.60;75.30
60723;DHT22;46574;52.818;6.516;2023-04-06T14:03:32;12.60;77.20
60723;DHT22;46574;52.818;6.516;2023-04-06T14:05:58;12.50;77.10
60723;DHT22;46574;52.818;6.516;2023-04-06T14:08:24;12.50;77.00
60723;DHT22;46574;52.818;6.516;2023-04-06T14:10:50;12.50;78.80
60723;DHT22;46574;52.818;6.516;2023-04-06T14:13:16;12.50;78.60
60723;DHT22;46574;52.818;6.516;2023-04-06T14:15:42;12.60;79.40
60723;DHT22;46574;52.818;6.516;2023-04-06T14:18:08;12.40;79.10
60723;DHT22;46574;52.818;6.516;2023-04-06T14:20:34;12.40;79.40
60723;DHT22;46574;52.818;6.516;2023-04-06T14:23:03;12.30;79.60
60723;DHT22;46574;52.818;6.516;2023-04-06T14:25:29;12.50;79.10
60723;DHT22;46574;52.818;6.516;2023-04-06T14:27:57;12.50;76.00
60723;DHT22;46574;52.818;6.516;2023-04-06T14:30:22;12.50;79.00
60723;DHT22;46574;52.818;6.516;2023-04-06T14:32:48;12.50;79.00
60723;DHT22;46574;52.818;6.516;2023-04-06T14:35:13;12.30;76.80
60723;DHT22;46574;52.818;6.516;2023-04-06T14:37:39;12.40;79.70
60723;DHT22;46574;52.818;6.516;2023-04-06T14:40:05;12.20;80.20
60723;DHT22;46574;52.818;6.516;2023-04-06T14:42:32;11.90;81.70
60723;DHT22;46574;52.818;6.516;2023-04-06T14:44:57;11.80;86.60
60723;DHT22;46574;52.818;6.516;2023-04-06T14:47:23;11.80;90.00
60723;DHT22;46574;52.818;6.516;2023-04-06T14:49:51;11.80;91.30
60723;DHT22;46574;52.818;6.516;2023-04-06T14:52:17;11.70;94.00
60723;DHT22;46574;52.818;6.516;2023-04-06T14:54:43;11.60;92.90
60723;DHT22;46574;52.818;6.516;2023-04-06T14:57:09;11.60;94.00
60723;DHT22;46574;52.818;6.516;2023-04-06T14:59:35;11.50;95.70
60723;DHT22;46574;52.818;6.516;2023-04-06T15:02:01;11.40;98.60
60723;DHT22;46574;52.818;6.516;2023-04-06T15:04:28;11.40;99.80
60723;DHT22;46574;52.818;6.516;2023-04-06T15:06:54;11.40;99.90
60723;DHT22;46574;52.818;6.516;2023-04-06T15:09:19;11.30;99.90
60723;DHT22;46574;52.818;6.516;2023-04-06T15:11:45;11.20;99.90
60723;DHT22;46574;52.818;6.516;2023-04-06T15:14:11;11.10;99.90
60723;DHT22;46574;52.818;6.516;2023-04-06T15:16:36;11.10;99.90
60723;DHT22;46574;52.818;6.516;2023-04-06T15:19:02;11.10;99.90
60723;DHT22;46574;52.818;6.516;2023-04-06T15:21:27;10.90;99.90
60723;DHT22;46574;52.818;6.516;2023-04-06T15:23:53;10.90;99.90
60723;DHT22;46574;52.818;6.516;2023-04-06T15:26:20;10.70;99.90
60723;DHT22;46574;52.818;6.516;2023-04-06T15:28:46;10.70;99.90
60723;DHT22;46574;52.818;6.516;2023-04-06T15:31:19;10.60;99.90
60723;DHT22;46574;52.818;6.516;2023-04-06T15:33:48;10.50;99.90
60723;DHT22;46574;52.818;6.516;2023-04-06T15:36:23;10.50;99.90
60723;DHT22;46574;52.818;6.516;2023-04-06T15:38:50;10.40;99.90
60723;DHT22;46574;52.818;6.516;2023-04-06T15:41:16;10.40;99.90